sensor_id;sensor_type;location;lat;lon;timestamp;P1;durP1;ratioP1;P2;durP2;ratioP2
19800;SDS011;10060;48.274;12.214;2023-04-26T00:01:51;13.70;;;8.57;;
19800;SDS011;10060;48.274;12.214;2023-04-26T00:04:54;14.43;;;8.40;;
19800;SDS011;10060;48.274;12.214;2023-04-26T00:07:57;13.77;;;8.20;;
19800;SDS011;10060;48.274;12.214;2023-04-26T00:10:59;16.37;;;8.80;;
19800;SDS011;10060;48.274;12.214;2023-04-26T00:14:03;14.07;;;8.80;;
19800;SDS011;10060;48.274;12.214;2023-04-26T00:17:05;15.33;;;9.17;;
19800;SDS011;10060;48.274;12.214;2023-04-26T00:20:08;13.67;;;9.03;;
19800;SDS011;10060;48.274;12.214;2023-04-26T00:23:11;12.67;;;7.23;;
19800;SDS011;10060;48.274;12.214;2023-04-26T00:26:14;10.63;;;6.77;;
19800;SDS011;10060;48.274;12.214;2023-04-26T00:29:17;10.70;;;6.40;;
19800;SDS011;10060;48.274;12.214;2023-04-26T00:32:19;13.20;;;6.97;;
19800;SDS011;10060;48.274;12.214;2023-04-26T00:35:21;13.77;;;6.57;;
19800;SDS011;10060;48.274;12.214;2023-04-26T00:38:24;10.87;;;7.37;;
19800;SDS011;10060;48.274;12.214;2023-04-26T00:41:26;11.70;;;7.10;;
19800;SDS011;10060;48.274;12.214;2023-04-26T00:44:29;11.97;;;7.07;;
19800;SDS011;10060;48.274;12.214;2023-04-26T00:47:31;13.73;;;7.00;;
19800;SDS011;10060;48.274;12.214;2023-04-26T00:50:34;14.20;;;7.27;;
19800;SDS011;10060;48.274;12.214;2023-04-26T00:53:36;10.70;;;6.70;;
19800;SDS011;10060;48.274;12.214;2023-04-26T00:56:38;13.07;;;6.77;;
19800;SDS011;10060;48.274;12.214;2023-04-26T00:59:42;9.17;;;6.23;;
19800;SDS011;10060;48.274;12.214;2023-04-26T01:02:44;9.27;;;6.53;;
19800;SDS011;10060;48.274;12.214;2023-04-26T01:05:46;11.27;;;6.80;;
19800;SDS011;10060;48.274;12.214;2023-04-26T01:08:49;11.83;;;7.07;;
19800;SDS011;10060;48.274;12.214;2023-04-26T01:11:52;11.73;;;7.33;;
19800;SDS011;10060;48.274;12.214;2023-04-26T01:14:58;13.50;;;7.60;;
19800;SDS011;10060;48.274;12.214;2023-04-26T01:18:01;10.53;;;6.97;;
19800;SDS011;10060;48.274;12.214;2023-04-26T01:21:03;12.17;;;6.57;;
19800;SDS011;10060;48.274;12.214;2023-04-26T01:24:07;13.57;;;7.13;;
19800;SDS011;10060;48.274;12.214;2023-04-26T01:27:10;10.73;;;6.27;;
19800;SDS011;10060;48.274;12.214;2023-04-26T01:30:12;13.73;;;7.23;;
19800;SDS011;10060;48.274;12.214;2023-04-26T01:33:14;12.23;;;7.00;;
19800;SDS011;10060;48.274;12.214;2023-04-26T01:36:17;12.07;;;7.17;;
19800;SDS011;10060;48.274;12.214;2023-04-26T01:39:20;11.63;;;6.90;;
19800;SDS011;10060;48.274;12.214;2023-04-26T01:42:22;12.67;;;7.07;;
19800;SDS011;10060;48.274;12.214;2023-04-26T01:45:24;15.10;;;7.73;;
19800;SDS011;10060;48.274;12.214;2023-04-26T01:48:28;11.30;;;7.53;;
19800;SDS011;10060;48.274;12.214;2023-04-26T01:51:30;15.03;;;8.13;;
19800;SDS011;10060;48.274;12.214;2023-04-26T01:54:34;11.07;;;7.53;;
19800;SDS011;10060;48.274;12.214;2023-04-26T01:57:36;13.20;;;7.50;;
19800;SDS011;10060;48.274;12.214;2023-04-26T02:00:38;12.10;;;7.67;;
19800;SDS011;10060;48.274;12.214;2023-04-26T02:03:40;15.07;;;8.33;;
19800;SDS011;10060;48.274;12.214;2023-04-26T02:06:43;13.10;;;7.77;;
19800;SDS011;10060;48.274;12.214;2023-04-26T02:09:46;13.90;;;7.20;;
19800;SDS011;10060;48.274;12.214;2023-04-26T02:12:48;13.63;;;7.70;;
19800;SDS011;10060;48.274;12.214;2023-04-26T02:15:50;10.43;;;6.93;;
19800;SDS011;10060;48.274;12.214;2023-04-26T02:18:52;14.13;;;7.07;;
19800;SDS011;10060;48.274;12.214;2023-04-26T02:21:55;13.70;;;7.60;;
19800;SDS011;10060;48.274;12.214;2023-04-26T02:24:59;13.93;;;7.70;;
19800;SDS011;10060;48.274;12.214;2023-04-26T02:28:01;16.47;;;8.03;;
19800;SDS011;10060;48.274;12.214;2023-04-26T02:31:03;13.53;;;8.03;;
19800;SDS011;10060;48.274;12.214;2023-04-26T02:34:05;12.27;;;7.87;;
19800;SDS011;10060;48.274;12.214;2023-04-26T02:37:07;11.97;;;7.20;;
19800;SDS011;10060;48.274;12.214;2023-04-26T02:40:11;12.93;;;7.70;;
19800;SDS011;10060;48.274;12.214;2023-04-26T02:43:13;12.40;;;7.50;;
19800;SDS011;10060;48.274;12.214;2023-04-26T02:46:15;14.27;;;7.87;;
19800;SDS011;10060;48.274;12.214;2023-04-26T02:49:17;16.97;;;7.53;;
19800;SDS011;10060;48.274;12.214;2023-04-26T02:52:19;12.03;;;7.50;;
19800;SDS011;10060;48.274;12.214;2023-04-26T02:55:23;14.43;;;8.00;;
19800;SDS011;10060;48.274;12.214;2023-04-26T02:58:25;13.20;;;7.80;;
19800;SDS011;10060;48.274;12.214;2023-04-26T03:01:27;15.90;;;7.73;;
19800;SDS011;10060;48.274;12.214;2023-04-26T03:04:30;12.33;;;7.83;;
19800;SDS011;10060;48.274;12.214;2023-04-26T03:07:33;13.70;;;8.47;;
19800;SDS011;10060;48.274;12.214;2023-04-26T03:10:36;15.70;;;8.50;;
19800;SDS011;10060;48.274;12.214;2023-04-26T03:13:38;15.73;;;8.47;;
19800;SDS011;10060;48.274;12.214;2023-04-26T03:16:40;13.07;;;8.50;;
19800;SDS011;10060;48.274;12.214;2023-04-26T03:19:43;16.80;;;8.80;;
19800;SDS011;10060;48.274;12.214;2023-04-26T03:22:45;16.33;;;8.87;;
19800;SDS011;10060;48.274;12.214;2023-04-26T03:25:48;14.07;;;8.70;;
19800;SDS011;10060;48.274;12.214;2023-04-26T03:28:51;17.60;;;9.53;;
19800;SDS011;10060;48.274;12.214;2023-04-26T03:31:53;16.67;;;8.60;;
19800;SDS011;10060;48.274;12.214;2023-04-26T03:34:55;17.73;;;10.07;;
19800;SDS011;10060;48.274;12.214;2023-04-26T03:37:57;15.97;;;9.10;;
19800;SDS011;10060;48.274;12.214;2023-04-26T03:41:01;15.73;;;8.70;;
19800;SDS011;10060;48.274;12.214;2023-04-26T03:44:03;17.37;;;9.30;;
19800;SDS011;10060;48.274;12.214;2023-04-26T03:47:05;17.00;;;9.17;;
19800;SDS011;10060;48.274;12.214;2023-04-26T03:50:08;19.13;;;10.43;;
19800;SDS011;10060;48.274;12.214;2023-04-26T03:53:10;14.93;;;9.30;;
19800;SDS011;10060;48.274;12.214;2023-04-26T03:56:14;20.47;;;10.87;;
19800;SDS011;10060;48.274;12.214;2023-04-26T03:59:16;18.37;;;10.10;;
19800;SDS011;10060;48.274;12.214;2023-04-26T04:02:18;21.70;;;10.50;;
19800;SDS011;10060;48.274;12.214;2023-04-26T04:05:20;19.80;;;10.73;;
19800;SDS011;10060;48.274;12.214;2023-04-26T04:08:22;18.23;;;10.40;;
19800;SDS011;10060;48.274;12.214;2023-04-26T04:11:26;20.73;;;11.50;;
19800;SDS011;10060;48.274;12.214;2023-04-26T04:14:28;29.00;;;11.43;;
19800;SDS011;10060;48.274;12.214;2023-04-26T04:17:30;18.33;;;11.00;;
19800;SDS011;10060;48.274;12.214;2023-04-26T04:20:32;21.73;;;12.40;;
19800;SDS011;10060;48.274;12.214;2023-04-26T04:23:34;27.03;;;12.37;;
19800;SDS011;10060;48.274;12.214;2023-04-26T04:26:38;22.90;;;11.73;;
19800;SDS011;10060;48.274;12.214;2023-04-26T04:29:40;22.37;;;12.07;;
19800;SDS011;10060;48.274;12.214;2023-04-26T04:32:43;23.57;;;12.60;;
19800;SDS011;10060;48.274;12.214;2023-04-26T04:35:45;22.57;;;12.20;;
19800;SDS011;10060;48.274;12.214;2023-04-26T04:38:47;27.07;;;13.40;;
19800;SDS011;10060;48.274;12.214;2023-04-26T04:41:51;31.17;;;13.53;;
19800;SDS011;10060;48.274;12.214;2023-04-26T04:44:53;23.63;;;13.10;;
19800;SDS011;10060;48.274;12.214;2023-04-26T04:47:56;22.47;;;12.90;;
19800;SDS011;10060;48.274;12.214;2023-04-26T04:50:58;27.33;;;12.73;;
19800;SDS011;10060;48.274;12.214;2023-04-26T04:54:07;26.93;;;13.60;;
19800;SDS011;10060;48.274;12.214;2023-04-26T04:57:11;26.60;;;13.57;;
19800;SDS011;10060;48.274;12.214;2023-04-26T05:00:15;24.17;;;12.80;;
19800;SDS011;10060;48.274;12.214;2023-04-26T05:03:18;23.37;;;13.53;;
19800;SDS011;10060;48.274;12.214;2023-04-26T05:06:20;25.23;;;13.23;;
19800;SDS011;10060;48.274;12.214;2023-04-26T05:09:23;27.63;;;14.03;;
19800;SDS011;10060;48.274;12.214;2023-04-26T05:12:27;23.53;;;12.60;;
19800;SDS011;10060;48.274;12.214;2023-04-26T05:15:29;24.73;;;12.57;;
19800;SDS011;10060;48.274;12.214;2023-04-26T05:18:31;25.13;;;13.47;;
19800;SDS011;10060;48.274;12.214;2023-04-26T05:21:33;26.00;;;13.37;;
19800;SDS011;10060;48.274;12.214;2023-04-26T05:24:35;24.40;;;13.03;;
19800;SDS011;10060;48.274;12.214;2023-04-26T05:27:39;23.43;;;12.83;;
19800;SDS011;10060;48.274;12.214;2023-04-26T05:30:41;24.00;;;12.67;;
19800;SDS011;10060;48.274;12.214;2023-04-26T05:33:44;25.30;;;12.10;;
19800;SDS011;10060;48.274;12.214;2023-04-26T05:36:46;24.00;;;12.77;;
19800;SDS011;10060;48.274;12.214;2023-04-26T05:39:48;22.20;;;12.30;;
19800;SDS011;10060;48.274;12.214;2023-04-26T05:42:52;25.37;;;13.30;;
19800;SDS011;10060;48.274;12.214;2023-04-26T05:45:54;20.70;;;12.47;;
19800;SDS011;10060;48.274;12.214;2023-04-26T05:48:57;22.57;;;11.60;;
19800;SDS011;10060;48.274;12.214;2023-04-26T05:51:59;24.07;;;13.00;;
19800;SDS011;10060;48.274;12.214;2023-04-26T05:55:02;20.43;;;11.93;;
19800;SDS011;10060;48.274;12.214;2023-04-26T05:58:06;20.87;;;11.63;;
19800;SDS011;10060;48.274;12.214;2023-04-26T06:01:08;18.07;;;11.23;;
19800;SDS011;10060;48.274;12.214;2023-04-26T06:04:11;20.70;;;10.60;;
19800;SDS011;10060;48.274;12.214;2023-04-26T06:07:13;19.30;;;10.30;;
19800;SDS011;10060;48.274;12.214;2023-04-26T06:10:16;23.37;;;11.03;;
19800;SDS011;10060;48.274;12.214;2023-04-26T06:13:19;17.53;;;10.13;;
19800;SDS011;10060;48.274;12.214;2023-04-26T06:16:21;20.07;;;10.57;;
19800;SDS011;10060;48.274;12.214;2023-04-26T06:19:24;18.00;;;10.37;;
19800;SDS011;10060;48.274;12.214;2023-04-26T06:22:26;16.73;;;10.03;;
19800;SDS011;10060;48.274;12.214;2023-04-26T06:25:28;18.87;;;10.83;;
19800;SDS011;10060;48.274;12.214;2023-04-26T06:28:31;19.27;;;10.03;;
19800;SDS011;10060;48.274;12.214;2023-04-26T06:31:34;21.27;;;10.50;;
19800;SDS011;10060;48.274;12.214;2023-04-26T06:34:36;18.87;;;10.33;;
19800;SDS011;10060;48.274;12.214;2023-04-26T06:37:38;21.27;;;10.03;;
19800;SDS011;10060;48.274;12.214;2023-04-26T06:40:41;15.27;;;9.73;;
19800;SDS011;10060;48.274;12.214;2023-04-26T06:43:45;18.00;;;9.30;;
19800;SDS011;10060;48.274;12.214;2023-04-26T06:46:47;15.80;;;9.17;;
19800;SDS011;10060;48.274;12.214;2023-04-26T06:49:49;17.80;;;9.43;;
19800;SDS011;10060;48.274;12.214;2023-04-26T06:52:51;18.70;;;9.73;;
19800;SDS011;10060;48.274;12.214;2023-04-26T06:55:53;18.53;;;9.23;;
19800;SDS011;10060;48.274;12.214;2023-04-26T06:58:58;16.30;;;9.23;;
19800;SDS011;10060;48.274;12.214;2023-04-26T07:02:01;14.97;;;9.13;;
19800;SDS011;10060;48.274;12.214;2023-04-26T07:05:03;13.27;;;9.07;;
19800;SDS011;10060;48.274;12.214;2023-04-26T07:08:05;14.73;;;10.13;;
19800;SDS011;10060;48.274;12.214;2023-04-26T07:11:08;18.33;;;9.50;;
19800;SDS011;10060;48.274;12.214;2023-04-26T07:14:12;16.50;;;9.10;;
19800;SDS011;10060;48.274;12.214;2023-04-26T07:17:14;14.23;;;8.67;;
19800;SDS011;10060;48.274;12.214;2023-04-26T07:20:16;13.30;;;8.13;;
19800;SDS011;10060;48.274;12.214;2023-04-26T07:23:19;15.63;;;8.77;;
19800;SDS011;10060;48.274;12.214;2023-04-26T07:26:22;13.90;;;8.03;;
19800;SDS011;10060;48.274;12.214;2023-04-26T07:29:26;13.40;;;8.13;;
19800;SDS011;10060;48.274;12.214;2023-04-26T07:32:28;15.87;;;9.67;;
19800;SDS011;10060;48.274;12.214;2023-04-26T07:35:30;16.37;;;7.87;;
19800;SDS011;10060;48.274;12.214;2023-04-26T07:38:34;13.90;;;8.67;;
19800;SDS011;10060;48.274;12.214;2023-04-26T07:41:36;15.97;;;8.90;;
19800;SDS011;10060;48.274;12.214;2023-04-26T07:44:40;15.53;;;8.57;;
19800;SDS011;10060;48.274;12.214;2023-04-26T07:47:42;16.03;;;9.43;;
19800;SDS011;10060;48.274;12.214;2023-04-26T07:50:44;14.93;;;8.67;;
19800;SDS011;10060;48.274;12.214;2023-04-26T07:53:47;12.07;;;8.20;;
19800;SDS011;10060;48.274;12.214;2023-04-26T07:56:49;11.37;;;8.53;;
19800;SDS011;10060;48.274;12.214;2023-04-26T07:59:53;16.50;;;10.03;;
19800;SDS011;10060;48.274;12.214;2023-04-26T08:02:55;12.23;;;7.37;;
19800;SDS011;10060;48.274;12.214;2023-04-26T08:05:57;10.57;;;7.00;;
19800;SDS011;10060;48.274;12.214;2023-04-26T08:09:00;9.50;;;5.90;;
19800;SDS011;10060;48.274;12.214;2023-04-26T08:12:04;9.93;;;6.60;;
19800;SDS011;10060;48.274;12.214;2023-04-26T08:15:08;9.27;;;6.93;;
19800;SDS011;10060;48.274;12.214;2023-04-26T08:18:10;14.27;;;7.40;;
19800;SDS011;10060;48.274;12.214;2023-04-26T08:21:12;11.20;;;7.17;;
19800;SDS011;10060;48.274;12.214;2023-04-26T08:24:15;10.40;;;8.00;;
19800;SDS011;10060;48.274;12.214;2023-04-26T08:27:17;11.63;;;6.87;;
19800;SDS011;10060;48.274;12.214;2023-04-26T08:30:20;12.00;;;7.00;;
19800;SDS011;10060;48.274;12.214;2023-04-26T08:33:23;11.83;;;7.57;;
19800;SDS011;10060;48.274;12.214;2023-04-26T08:36:25;11.07;;;7.57;;
19800;SDS011;10060;48.274;12.214;2023-04-26T08:39:27;12.33;;;7.30;;
19800;SDS011;10060;48.274;12.214;2023-04-26T08:42:30;12.13;;;7.50;;
19800;SDS011;10060;48.274;12.214;2023-04-26T08:45:34;13.20;;;7.30;;
19800;SDS011;10060;48.274;12.214;2023-04-26T08:48:38;11.47;;;6.37;;
19800;SDS011;10060;48.274;12.214;2023-04-26T08:51:41;10.87;;;6.77;;
19800;SDS011;10060;48.274;12.214;2023-04-26T08:54:43;12.30;;;6.43;;
19800;SDS011;10060;48.274;12.214;2023-04-26T08:57:46;12.20;;;6.20;;
19800;SDS011;10060;48.274;12.214;2023-04-26T09:00:50;9.80;;;6.80;;
19800;SDS011;10060;48.274;12.214;2023-04-26T09:03:53;9.67;;;6.57;;
19800;SDS011;10060;48.274;12.214;2023-04-26T09:06:57;13.73;;;6.80;;
19800;SDS011;10060;48.274;12.214;2023-04-26T09:10:00;11.20;;;6.80;;
19800;SDS011;10060;48.274;12.214;2023-04-26T09:13:05;12.00;;;6.40;;
19800;SDS011;10060;48.274;12.214;2023-04-26T09:16:08;11.37;;;6.50;;
19800;SDS011;10060;48.274;12.214;2023-04-26T09:19:10;9.10;;;6.40;;
19800;SDS011;10060;48.274;12.214;2023-04-26T09:22:13;7.13;;;5.43;;
19800;SDS011;10060;48.274;12.214;2023-04-26T09:25:15;9.27;;;6.27;;
19800;SDS011;10060;48.274;12.214;2023-04-26T09:28:19;13.47;;;6.03;;
19800;SDS011;10060;48.274;12.214;2023-04-26T09:31:37;8.70;;;5.10;;
19800;SDS011;10060;48.274;12.214;2023-04-26T09:34:43;9.67;;;5.53;;
19800;SDS011;10060;48.274;12.214;2023-04-26T09:37:50;8.10;;;5.13;;
19800;SDS011;10060;48.274;12.214;2023-04-26T09:40:52;10.40;;;5.53;;
19800;SDS011;10060;48.274;12.214;2023-04-26T09:43:58;8.57;;;5.73;;
19800;SDS011;10060;48.274;12.214;2023-04-26T09:47:02;9.20;;;5.90;;
19800;SDS011;10060;48.274;12.214;2023-04-26T09:50:04;7.77;;;6.00;;
19800;SDS011;10060;48.274;12.214;2023-04-26T09:53:07;9.70;;;5.73;;
19800;SDS011;10060;48.274;12.214;2023-04-26T09:56:10;11.90;;;5.10;;
19800;SDS011;10060;48.274;12.214;2023-04-26T09:59:12;9.23;;;5.30;;
19800;SDS011;10060;48.274;12.214;2023-04-26T10:02:17;9.80;;;5.30;;
19800;SDS011;10060;48.274;12.214;2023-04-26T10:05:19;9.77;;;5.80;;
19800;SDS011;10060;48.274;12.214;2023-04-26T10:08:21;8.43;;;4.93;;
19800;SDS011;10060;48.274;12.214;2023-04-26T10:11:24;9.10;;;5.50;;
19800;SDS011;10060;48.274;12.214;2023-04-26T10:14:27;9.63;;;5.80;;
19800;SDS011;10060;48.274;12.214;2023-04-26T10:17:30;9.53;;;5.70;;
19800;SDS011;10060;48.274;12.214;2023-04-26T10:20:33;9.40;;;5.80;;
19800;SDS011;10060;48.274;12.214;2023-04-26T10:23:36;8.73;;;5.93;;
19800;SDS011;10060;48.274;12.214;2023-04-26T10:26:45;8.23;;;4.90;;
19800;SDS011;10060;48.274;12.214;2023-04-26T10:30:05;10.60;;;5.43;;
19800;SDS011;10060;48.274;12.214;2023-04-26T10:33:12;10.13;;;6.70;;
19800;SDS011;10060;48.274;12.214;2023-04-26T10:36:16;10.13;;;6.57;;
19800;SDS011;10060;48.274;12.214;2023-04-26T10:39:20;9.77;;;6.00;;
19800;SDS011;10060;48.274;12.214;2023-04-26T10:42:24;9.30;;;6.70;;
19800;SDS011;10060;48.274;12.214;2023-04-26T10:45:26;9.90;;;6.20;;
19800;SDS011;10060;48.274;12.214;2023-04-26T10:48:30;10.47;;;6.00;;
19800;SDS011;10060;48.274;12.214;2023-04-26T10:51:32;9.43;;;6.30;;
19800;SDS011;10060;48.274;12.214;2023-04-26T10:54:49;10.07;;;6.50;;
19800;SDS011;10060;48.274;12.214;2023-04-26T10:57:51;9.97;;;6.00;;
19800;SDS011;10060;48.274;12.214;2023-04-26T11:01:02;9.40;;;5.83;;
19800;SDS011;10060;48.274;12.214;2023-04-26T11:04:07;11.13;;;6.83;;
19800;SDS011;10060;48.274;12.214;2023-04-26T11:10:15;10.47;;;5.90;;
19800;SDS011;10060;48.274;12.214;2023-04-26T11:13:23;11.43;;;6.03;;
19800;SDS011;10060;48.274;12.214;2023-04-26T11:16:27;12.70;;;7.00;;
19800;SDS011;10060;48.274;12.214;2023-04-26T11:19:31;14.30;;;6.07;;
19800;SDS011;10060;48.274;12.214;2023-04-26T11:22:33;9.40;;;6.00;;
19800;SDS011;10060;48.274;12.214;2023-04-26T11:25:40;11.83;;;7.23;;
19800;SDS011;10060;48.274;12.214;2023-04-26T11:28:42;9.77;;;6.13;;
19800;SDS011;10060;48.274;12.214;2023-04-26T11:31:51;11.80;;;6.73;;
19800;SDS011;10060;48.274;12.214;2023-04-26T11:34:58;12.13;;;6.03;;
19800;SDS011;10060;48.274;12.214;2023-04-26T11:38:02;9.80;;;5.80;;
19800;SDS011;10060;48.274;12.214;2023-04-26T11:41:05;10.27;;;6.13;;
19800;SDS011;10060;48.274;12.214;2023-04-26T11:44:10;12.43;;;5.93;;
19800;SDS011;10060;48.274;12.214;2023-04-26T11:47:12;10.47;;;6.23;;
19800;SDS011;10060;48.274;12.214;2023-04-26T11:50:15;14.90;;;7.00;;
19800;SDS011;10060;48.274;12.214;2023-04-26T11:53:19;9.83;;;6.43;;
19800;SDS011;10060;48.274;12.214;2023-04-26T11:56:21;10.97;;;7.10;;
19800;SDS011;10060;48.274;12.214;2023-04-26T11:59:23;13.33;;;6.47;;
19800;SDS011;10060;48.274;12.214;2023-04-26T12:02:25;8.90;;;6.30;;
19800;SDS011;10060;48.274;12.214;2023-04-26T12:05:29;8.23;;;5.83;;
19800;SDS011;10060;48.274;12.214;2023-04-26T12:08:31;6.90;;;4.87;;
19800;SDS011;10060;48.274;12.214;2023-04-26T12:11:34;8.40;;;5.97;;
19800;SDS011;10060;48.274;12.214;2023-04-26T12:14:36;10.03;;;6.40;;
19800;SDS011;10060;48.274;12.214;2023-04-26T12:17:39;7.50;;;4.80;;
19800;SDS011;10060;48.274;12.214;2023-04-26T12:20:43;11.77;;;5.57;;
19800;SDS011;10060;48.274;12.214;2023-04-26T12:23:46;9.70;;;5.37;;
19800;SDS011;10060;48.274;12.214;2023-04-26T12:26:48;7.77;;;5.23;;
19800;SDS011;10060;48.274;12.214;2023-04-26T12:29:51;6.97;;;5.50;;
19800;SDS011;10060;48.274;12.214;2023-04-26T12:32:53;8.33;;;5.20;;
19800;SDS011;10060;48.274;12.214;2023-04-26T12:35:56;7.43;;;4.83;;
19800;SDS011;10060;48.274;12.214;2023-04-26T12:39:00;10.70;;;6.07;;
19800;SDS011;10060;48.274;12.214;2023-04-26T12:42:04;9.27;;;5.80;;
19800;SDS011;10060;48.274;12.214;2023-04-26T12:45:06;7.57;;;5.57;;
19800;SDS011;10060;48.274;12.214;2023-04-26T12:48:09;9.87;;;5.30;;
19800;SDS011;10060;48.274;12.214;2023-04-26T12:51:12;8.47;;;4.60;;
19800;SDS011;10060;48.274;12.214;2023-04-26T12:54:15;10.50;;;5.00;;
19800;SDS011;10060;48.274;12.214;2023-04-26T12:57:18;6.90;;;4.67;;
19800;SDS011;10060;48.274;12.214;2023-04-26T13:00:20;7.53;;;4.30;;
19800;SDS011;10060;48.274;12.214;2023-04-26T13:03:22;13.00;;;5.10;;
19800;SDS011;10060;48.274;12.214;2023-04-26T13:06:26;7.80;;;4.60;;
19800;SDS011;10060;48.274;12.214;2023-04-26T13:09:28;6.63;;;4.97;;
19800;SDS011;10060;48.274;12.214;2023-04-26T13:12:30;8.63;;;4.33;;
19800;SDS011;10060;48.274;12.214;2023-04-26T13:15:32;6.53;;;4.20;;
19800;SDS011;10060;48.274;12.214;2023-04-26T13:18:35;11.37;;;4.70;;
19800;SDS011;10060;48.274;12.214;2023-04-26T13:21:39;7.57;;;4.70;;
19800;SDS011;10060;48.274;12.214;2023-04-26T13:24:41;8.20;;;4.53;;
19800;SDS011;10060;48.274;12.214;2023-04-26T13:27:43;9.13;;;4.80;;
19800;SDS011;10060;48.274;12.214;2023-04-26T13:30:45;6.73;;;4.27;;
19800;SDS011;10060;48.274;12.214;2023-04-26T13:33:48;6.63;;;4.83;;
19800;SDS011;10060;48.274;12.214;2023-04-26T13:36:51;6.57;;;4.73;;
19800;SDS011;10060;48.274;12.214;2023-04-26T13:39:55;8.40;;;5.17;;
19800;SDS011;10060;48.274;12.214;2023-04-26T13:42:59;9.93;;;4.43;;
19800;SDS011;10060;48.274;12.214;2023-04-26T13:46:01;6.23;;;3.80;;
19800;SDS011;10060;48.274;12.214;2023-04-26T13:49:03;7.73;;;4.03;;
19800;SDS011;10060;48.274;12.214;2023-04-26T13:52:07;7.43;;;4.17;;
19800;SDS011;10060;48.274;12.214;2023-04-26T13:55:09;6.60;;;4.20;;
19800;SDS011;10060;48.274;12.214;2023-04-26T13:58:11;8.17;;;4.10;;
19800;SDS011;10060;48.274;12.214;2023-04-26T14:01:13;6.07;;;3.90;;
19800;SDS011;10060;48.274;12.214;2023-04-26T14:04:15;5.40;;;3.83;;
19800;SDS011;10060;48.274;12.214;2023-04-26T14:07:19;5.20;;;3.43;;
19800;SDS011;10060;48.274;12.214;2023-04-26T14:10:21;5.73;;;4.13;;
19800;SDS011;10060;48.274;12.214;2023-04-26T14:13:23;5.37;;;3.37;;
19800;SDS011;10060;48.274;12.214;2023-04-26T14:16:25;8.90;;;4.47;;
19800;SDS011;10060;48.274;12.214;2023-04-26T14:19:28;7.07;;;4.07;;
19800;SDS011;10060;48.274;12.214;2023-04-26T14:22:31;5.53;;;3.50;;
19800;SDS011;10060;48.274;12.214;2023-04-26T14:25:34;8.43;;;3.97;;
19800;SDS011;10060;48.274;12.214;2023-04-26T14:28:36;7.70;;;3.73;;
19800;SDS011;10060;48.274;12.214;2023-04-26T14:31:40;6.00;;;4.10;;
19800;SDS011;10060;48.274;12.214;2023-04-26T14:34:42;6.67;;;3.57;;
19800;SDS011;10060;48.274;12.214;2023-04-26T14:37:45;8.73;;;3.80;;
19800;SDS011;10060;48.274;12.214;2023-04-26T14:40:47;5.63;;;3.97;;
19800;SDS011;10060;48.274;12.214;2023-04-26T14:43:50;9.80;;;4.30;;
19800;SDS011;10060;48.274;12.214;2023-04-26T14:46:52;7.40;;;3.30;;
19800;SDS011;10060;48.274;12.214;2023-04-26T14:49:55;5.17;;;3.70;;
19800;SDS011;10060;48.274;12.214;2023-04-26T14:52:59;5.90;;;3.60;;
19800;SDS011;10060;48.274;12.214;2023-04-26T14:56:01;6.60;;;3.67;;
19800;SDS011;10060;48.274;12.214;2023-04-26T14:59:05;5.40;;;3.23;;
19800;SDS011;10060;48.274;12.214;2023-04-26T15:02:07;6.40;;;3.60;;
19800;SDS011;10060;48.274;12.214;2023-04-26T15:05:09;4.97;;;3.40;;
19800;SDS011;10060;48.274;12.214;2023-04-26T15:08:12;8.83;;;4.83;;
19800;SDS011;10060;48.274;12.214;2023-04-26T15:11:15;11.07;;;3.97;;
19800;SDS011;10060;48.274;12.214;2023-04-26T15:14:17;5.60;;;3.47;;
19800;SDS011;10060;48.274;12.214;2023-04-26T15:17:19;7.87;;;3.93;;
19800;SDS011;10060;48.274;12.214;2023-04-26T15:20:21;8.30;;;4.10;;
19800;SDS011;10060;48.274;12.214;2023-04-26T15:23:25;6.37;;;3.80;;
19800;SDS011;10060;48.274;12.214;2023-04-26T15:26:28;11.60;;;3.53;;
19800;SDS011;10060;48.274;12.214;2023-04-26T15:29:30;5.67;;;3.60;;
19800;SDS011;10060;48.274;12.214;2023-04-26T15:32:32;6.70;;;3.17;;
19800;SDS011;10060;48.274;12.214;2023-04-26T15:35:34;5.53;;;3.47;;
19800;SDS011;10060;48.274;12.214;2023-04-26T15:38:38;4.63;;;3.27;;
19800;SDS011;10060;48.274;12.214;2023-04-26T15:41:40;12.17;;;5.60;;
19800;SDS011;10060;48.274;12.214;2023-04-26T15:44:44;5.60;;;3.53;;
19800;SDS011;10060;48.274;12.214;2023-04-26T15:47:47;6.93;;;4.10;;
19800;SDS011;10060;48.274;12.214;2023-04-26T15:50:49;7.77;;;4.27;;
19800;SDS011;10060;48.274;12.214;2023-04-26T15:53:54;5.90;;;3.60;;
19800;SDS011;10060;48.274;12.214;2023-04-26T15:56:56;4.53;;;3.00;;
19800;SDS011;10060;48.274;12.214;2023-04-26T15:59:58;7.07;;;3.43;;
19800;SDS011;10060;48.274;12.214;2023-04-26T16:03:00;7.13;;;4.10;;
19800;SDS011;10060;48.274;12.214;2023-04-26T16:06:03;6.40;;;3.43;;
19800;SDS011;10060;48.274;12.214;2023-04-26T16:09:07;6.20;;;3.57;;
19800;SDS011;10060;48.274;12.214;2023-04-26T16:12:13;6.60;;;3.50;;
19800;SDS011;10060;48.274;12.214;2023-04-26T16:15:16;9.60;;;4.20;;
19800;SDS011;10060;48.274;12.214;2023-04-26T16:18:18;6.33;;;3.80;;
19800;SDS011;10060;48.274;12.214;2023-04-26T16:21:20;4.63;;;3.47;;
19800;SDS011;10060;48.274;12.214;2023-04-26T16:24:24;7.30;;;2.90;;
19800;SDS011;10060;48.274;12.214;2023-04-26T16:27:26;5.23;;;3.40;;
19800;SDS011;10060;48.274;12.214;2023-04-26T16:30:28;4.27;;;3.00;;
19800;SDS011;10060;48.274;12.214;2023-04-26T16:33:30;5.37;;;3.40;;
19800;SDS011;10060;48.274;12.214;2023-04-26T16:36:33;10.20;;;3.70;;
19800;SDS011;10060;48.274;12.214;2023-04-26T16:39:37;4.87;;;3.30;;
19800;SDS011;10060;48.274;12.214;2023-04-26T16:42:39;3.47;;;3.17;;
19800;SDS011;10060;48.274;12.214;2023-04-26T16:45:42;7.50;;;3.17;;
19800;SDS011;10060;48.274;12.214;2023-04-26T16:48:45;9.93;;;5.90;;
19800;SDS011;10060;48.274;12.214;2023-04-26T16:51:47;10.43;;;5.93;;
19800;SDS011;10060;48.274;12.214;2023-04-26T16:54:58;7.73;;;4.20;;
19800;SDS011;10060;48.274;12.214;2023-04-26T16:58:01;5.83;;;3.20;;
19800;SDS011;10060;48.274;12.214;2023-04-26T17:01:03;6.40;;;3.30;;
19800;SDS011;10060;48.274;12.214;2023-04-26T17:04:05;5.73;;;3.83;;
19800;SDS011;10060;48.274;12.214;2023-04-26T17:07:07;3.50;;;3.17;;
19800;SDS011;10060;48.274;12.214;2023-04-26T17:10:11;6.67;;;3.97;;
19800;SDS011;10060;48.274;12.214;2023-04-26T17:13:13;4.90;;;3.37;;
19800;SDS011;10060;48.274;12.214;2023-04-26T17:16:15;6.33;;;3.50;;
19800;SDS011;10060;48.274;12.214;2023-04-26T17:19:17;5.70;;;4.23;;
19800;SDS011;10060;48.274;12.214;2023-04-26T17:22:20;12.43;;;5.97;;
19800;SDS011;10060;48.274;12.214;2023-04-26T17:25:24;7.73;;;4.53;;
19800;SDS011;10060;48.274;12.214;2023-04-26T17:28:26;6.07;;;5.33;;
19800;SDS011;10060;48.274;12.214;2023-04-26T17:31:28;5.47;;;3.63;;
19800;SDS011;10060;48.274;12.214;2023-04-26T17:34:30;5.47;;;4.60;;
19800;SDS011;10060;48.274;12.214;2023-04-26T17:37:33;4.90;;;4.00;;
19800;SDS011;10060;48.274;12.214;2023-04-26T17:40:36;3.87;;;3.47;;
19800;SDS011;10060;48.274;12.214;2023-04-26T17:43:39;6.20;;;3.90;;
19800;SDS011;10060;48.274;12.214;2023-04-26T17:46:41;4.97;;;3.50;;
19800;SDS011;10060;48.274;12.214;2023-04-26T17:49:43;6.23;;;4.00;;
19800;SDS011;10060;48.274;12.214;2023-04-26T17:52:45;7.60;;;5.13;;
19800;SDS011;10060;48.274;12.214;2023-04-26T17:55:49;12.10;;;4.57;;